Time;durP1;ratioP1;P1;durP2;ratioP2;P2;SDS_P1;SDS_P2;PMS_P1;PMS_P2;Temp;Humidity;BMP_temperature;BMP_pressure;BME280_temperature;BME280_humidity;BME280_pressure;Samples;Min_cycle;Max_cycle;Signal;HPM_P1;HPM_P2
2022/04/10 00:00:40;;;;;;;;;;;;;;;3.46;48.02;92639.19;2058515;69;20049;-68
2022/04/10 00:03:06;;;;;;;;;;;;;;;3.36;48.09;92641.13;2056854;69;20131;-67
2022/04/10 00:05:31;;;;;;;;;;;;;;;3.08;49.23;92640.16;2056268;69;20089;-70
2022/04/10 00:07:57;;;;;;;;;;;;;;;3.24;48.67;92638.03;2057247;69;20093;-68
2022/04/10 00:10:23;;;;;;;;;;;;;;;3.14;48.09;92635.09;2057938;69;20054;-68
2022/04/10 00:12:49;;;;;;;;;;;;;;;3.05;48.22;92630.16;2058341;69;20050;-69
2022/04/10 00:15:14;;;;;;;;;;;;;;;3.16;47.42;92631.75;2057839;69;20607;-70
2022/04/10 00:17:40;;;;;;;;;;;;;;;3.21;46.95;92626.00;2057772;69;20057;-68
2022/04/10 00:20:06;;;;;;;;;;;;;;;3.30;46.46;92630.94;2057720;69;20062;-69
2022/04/10 00:22:38;;;;;;;;;;;;;;;3.51;45.87;92630.63;2057301;69;20061;-68
2022/04/10 00:25:04;;;;;;;;;;;;;;;2.90;50.01;92630.22;2057598;69;20092;-68
2022/04/10 00:27:29;;;;;;;;;;;;;;;3.26;48.76;92630.59;2057829;69;20082;-69
2022/04/10 00:29:55;;;;;;;;;;;;;;;3.35;49.87;92643.16;2057602;69;20094;-68
2022/04/10 00:32:24;;;;;;;;;;;;;;;3.41;48.99;92640.16;2058249;69;20104;-68
2022/04/10 00:34:50;;;;;;;;;;;;;;;3.48;49.38;92639.34;2057100;69;20054;-71
2022/04/10 00:37:15;;;;;;;;;;;;;;;3.43;49.80;92646.63;2057864;69;20417;-69
2022/04/10 00:39:41;;;;;;;;;;;;;;;3.02;52.47;92659.06;2055173;69;20046;-68
2022/04/10 00:42:08;;;;;;;;;;;;;;;3.42;51.06;92650.72;2057927;69;20145;-67
2022/04/10 00:44:34;;;;;;;;;;;;;;;3.30;51.93;92661.56;2058238;69;20050;-68
2022/04/10 00:47:00;;;;;;;;;;;;;;;3.44;51.53;92650.91;2057861;69;20062;-69
2022/04/10 00:49:26;;;;;;;;;;;;;;;3.48;51.70;92653.28;2058052;69;20091;-67
2022/04/10 00:51:53;;;;;;;;;;;;;;;3.41;51.16;92662.41;2057815;69;20410;-69
2022/04/10 00:54:21;;;;;;;;;;;;;;;3.54;50.22;92668.47;2057617;69;20069;-68
2022/04/10 00:56:51;;;;;;;;;;;;;;;3.65;49.77;92664.47;2058503;69;20125;-68
2022/04/10 00:59:23;;;;;;;;;;;;;;;3.71;48.53;92665.03;2057327;69;20053;-67
2022/04/10 01:01:49;;;;;;;;;;;;;;;3.46;50.42;92667.75;2057484;69;20070;-69
2022/04/10 01:04:18;;;;;;;;;;;;;;;3.90;48.03;92661.72;2057209;69;20086;-68
2022/04/10 01:06:47;;;;;;;;;;;;;;;3.78;49.82;92661.44;2055043;69;20172;-67
2022/04/10 01:09:15;;;;;;;;;;;;;;;3.66;49.89;92668.00;2057251;69;20555;-69
2022/04/10 01:11:41;;;;;;;;;;;;;;;3.71;50.64;92667.03;2060586;69;20046;-69
2022/04/10 01:14:12;;;;;;;;;;;;;;;3.60;50.90;92659.16;2057341;69;20081;-69
2022/04/10 01:16:39;;;;;;;;;;;;;;;3.76;49.92;92669.63;2057305;69;20141;-71
2022/04/10 01:19:06;;;;;;;;;;;;;;;3.63;50.94;92677.50;2057671;69;20480;-68
2022/04/10 01:21:38;;;;;;;;;;;;;;;3.45;51.05;92676.69;2057816;69;20065;-68
2022/04/10 01:24:04;;;;;;;;;;;;;;;3.63;51.42;92683.81;2057802;69;20053;-69
2022/04/10 01:26:30;;;;;;;;;;;;;;;3.88;48.66;92685.88;2055933;69;20061;-67
2022/04/10 01:28:55;;;;;;;;;;;;;;;3.95;48.35;92685.09;2056871;69;20081;-67
2022/04/10 01:31:22;;;;;;;;;;;;;;;3.43;51.72;92676.50;2056602;69;20052;-67
2022/04/10 01:33:47;;;;;;;;;;;;;;;3.16;53.11;92682.59;2054224;69;20062;-67
2022/04/10 01:36:13;;;;;;;;;;;;;;;2.78;55.71;92671.59;2058039;69;20058;-68
2022/04/10 01:38:41;;;;;;;;;;;;;;;3.24;53.38;92672.13;2058521;69;20062;-68
2022/04/10 01:41:10;;;;;;;;;;;;;;;3.59;50.21;92677.91;2058025;69;20046;-67
2022/04/10 01:43:43;;;;;;;;;;;;;;;3.48;51.58;92672.75;2057577;69;20058;-72
2022/04/10 01:46:10;;;;;;;;;;;;;;;3.47;51.83;92677.59;2057457;69;20062;-66
2022/04/10 01:48:36;;;;;;;;;;;;;;;3.54;52.25;92678.84;2056498;69;20184;-68
2022/04/10 01:51:01;;;;;;;;;;;;;;;3.59;51.30;92679.94;2057311;69;20097;-67
2022/04/10 01:53:27;;;;;;;;;;;;;;;3.68;50.87;92676.53;2056752;69;20089;-67
2022/04/10 01:55:52;;;;;;;;;;;;;;;3.54;51.42;92684.44;2056911;69;20480;-67
2022/04/10 01:58:18;;;;;;;;;;;;;;;3.47;52.03;92674.81;2057008;69;20066;-70
2022/04/10 02:00:43;;;;;;;;;;;;;;;3.52;51.24;92682.19;2057711;69;20556;-72
2022/04/10 02:03:09;;;;;;;;;;;;;;;3.67;51.59;92675.06;2058097;69;20069;-66
2022/04/10 02:05:34;;;;;;;;;;;;;;;3.71;51.04;92675.41;2057891;69;20062;-69
2022/04/10 02:08:00;;;;;;;;;;;;;;;3.61;51.29;92680.09;2057578;69;20105;-67
2022/04/10 02:10:26;;;;;;;;;;;;;;;3.64;51.12;92673.41;2057871;69;20150;-68
2022/04/10 02:12:52;;;;;;;;;;;;;;;3.75;49.91;92681.31;2057950;69;20074;-69
2022/04/10 02:15:18;;;;;;;;;;;;;;;3.60;50.60;92676.59;2058472;69;20525;-68
2022/04/10 02:17:43;;;;;;;;;;;;;;;3.65;50.76;92681.19;2058075;69;20406;-69
2022/04/10 02:20:09;;;;;;;;;;;;;;;3.66;51.52;92679.88;2056086;69;20233;-67
2022/04/10 02:22:35;;;;;;;;;;;;;;;3.66;51.25;92679.88;2058540;69;20166;-67
2022/04/10 02:25:02;;;;;;;;;;;;;;;3.74;50.97;92677.06;2058762;69;20439;-70
2022/04/10 02:27:27;;;;;;;;;;;;;;;3.27;51.95;92676.59;2057670;69;20093;-68
2022/04/10 02:29:53;;;;;;;;;;;;;;;3.91;47.31;92687.53;2057943;69;20520;-68
2022/04/10 02:32:19;;;;;;;;;;;;;;;3.67;50.61;92681.38;2057733;69;20058;-67
2022/04/10 02:34:47;;;;;;;;;;;;;;;3.70;51.33;92683.00;2056337;69;20124;-67
2022/04/10 02:37:13;;;;;;;;;;;;;;;3.68;51.15;92685.63;2056552;69;20069;-70
2022/04/10 02:39:39;;;;;;;;;;;;;;;3.64;51.76;92701.25;2057813;69;20156;-70
2022/04/10 02:42:05;;;;;;;;;;;;;;;3.67;51.12;92700.13;2057852;69;20787;-69
2022/04/10 02:44:30;;;;;;;;;;;;;;;3.65;51.60;92699.94;2058400;69;20062;-67
2022/04/10 02:46:56;;;;;;;;;;;;;;;3.63;51.90;92697.00;2058065;69;20058;-69
2022/04/10 02:49:22;;;;;;;;;;;;;;;3.74;51.33;92688.94;2057485;69;20140;-68
2022/04/10 02:51:49;;;;;;;;;;;;;;;3.85;50.19;92698.13;2057840;69;20170;-72
2022/04/10 02:54:16;;;;;;;;;;;;;;;3.89;50.14;92695.69;2057504;69;20057;-69
2022/04/10 02:56:42;;;;;;;;;;;;;;;3.71;51.86;92694.88;2057348;69;20153;-67
2022/04/10 02:59:08;;;;;;;;;;;;;;;3.46;53.26;92689.28;2058234;69;20161;-68
2022/04/10 03:01:34;;;;;;;;;;;;;;;3.68;52.16;92694.00;2057953;69;20082;-67
2022/04/10 03:03:59;;;;;;;;;;;;;;;3.83;50.68;92695.94;2057704;69;20058;-67
2022/04/10 03:06:25;;;;;;;;;;;;;;;3.81;52.35;92692.97;2057208;69;20057;-69
2022/04/10 03:08:50;;;;;;;;;;;;;;;3.80;52.27;92694.28;2057180;69;20058;-68
2022/04/10 03:11:16;;;;;;;;;;;;;;;3.75;51.78;92695.22;2056940;69;20053;-68
2022/04/10 03:13:42;;;;;;;;;;;;;;;3.77;52.17;92692.63;2057242;69;20130;-67
2022/04/10 03:16:07;;;;;;;;;;;;;;;3.80;52.10;92694.28;2057131;69;20081;-67
2022/04/10 03:18:33;;;;;;;;;;;;;;;3.68;52.35;92685.63;2057796;69;20566;-67
2022/04/10 03:20:59;;;;;;;;;;;;;;;3.74;51.46;92690.97;2057618;69;20145;-69
2022/04/10 03:23:25;;;;;;;;;;;;;;;3.83;50.04;92688.31;2058364;69;20528;-68
2022/04/10 03:25:51;;;;;;;;;;;;;;;3.51;52.19;92696.69;2057802;69;20065;-70
2022/04/10 03:28:16;;;;;;;;;;;;;;;3.83;50.76;92701.50;2058008;69;20043;-69
2022/04/10 03:30:43;;;;;;;;;;;;;;;3.78;52.05;92699.69;2057653;69;20078;-67
2022/04/10 03:33:09;;;;;;;;;;;;;;;3.77;51.16;92704.50;2057862;69;20101;-67
2022/04/10 03:35:35;;;;;;;;;;;;;;;3.78;51.87;92703.19;2057100;69;20074;-68
2022/04/10 03:38:05;;;;;;;;;;;;;;;3.65;51.26;92705.50;2057649;69;20147;-69
2022/04/10 03:40:30;;;;;;;;;;;;;;;3.71;51.00;92701.22;2057750;69;20046;-69
2022/04/10 03:42:56;;;;;;;;;;;;;;;3.69;51.81;92714.94;2057839;69;20149;-69
2022/04/10 03:45:22;;;;;;;;;;;;;;;3.90;49.34;92711.13;2057975;69;20049;-69
2022/04/10 03:47:47;;;;;;;;;;;;;;;3.80;51.23;92720.09;2057716;69;20049;-70
2022/04/10 03:50:13;;;;;;;;;;;;;;;3.76;51.11;92719.75;2057545;69;20102;-69
2022/04/10 03:52:39;;;;;;;;;;;;;;;3.66;51.65;92723.69;2057726;69;20542;-72
2022/04/10 03:55:05;;;;;;;;;;;;;;;3.75;51.23;92726.59;2057844;69;20226;-70
2022/04/10 03:57:31;;;;;;;;;;;;;;;3.69;51.59;92726.09;2057704;69;20089;-69
2022/04/10 03:59:59;;;;;;;;;;;;;;;3.78;50.20;92728.25;2057899;69;20050;-70
2022/04/10 04:02:26;;;;;;;;;;;;;;;3.93;49.04;92733.00;2057762;69;20057;-67
2022/04/10 04:04:52;;;;;;;;;;;;;;;3.68;50.51;92727.41;2057996;69;20057;-70
2022/04/10 04:07:19;;;;;;;;;;;;;;;3.35;52.65;92731.47;2057458;69;20470;-69
2022/04/10 04:09:44;;;;;;;;;;;;;;;2.89;55.27;92729.59;2054579;69;20137;-70
2022/04/10 04:12:10;;;;;;;;;;;;;;;2.99;54.63;92726.97;2054625;70;20043;-68
2022/04/10 04:14:36;;;;;;;;;;;;;;;3.48;52.17;92725.63;2055986;69;20049;-69
2022/04/10 04:17:02;;;;;;;;;;;;;;;3.23;53.41;92723.53;2057819;69;20508;-71
2022/04/10 04:19:28;;;;;;;;;;;;;;;3.37;52.42;92720.50;2057868;69;20046;-69
2022/04/10 04:21:53;;;;;;;;;;;;;;;3.52;52.46;92723.94;2057606;69;20049;-71
2022/04/10 04:24:19;;;;;;;;;;;;;;;3.51;52.95;92728.03;2057862;69;20549;-69
2022/04/10 04:26:44;;;;;;;;;;;;;;;3.49;52.74;92732.69;2057677;69;20081;-69
2022/04/10 04:29:12;;;;;;;;;;;;;;;3.54;52.88;92740.09;2056768;69;20058;-71
2022/04/10 04:31:37;;;;;;;;;;;;;;;3.49;52.85;92733.44;2057812;69;20057;-72
2022/04/10 04:34:03;;;;;;;;;;;;;;;3.59;52.43;92733.56;2057237;69;20155;-68
2022/04/10 04:36:31;;;;;;;;;;;;;;;3.49;53.06;92733.44;2058898;69;20549;-69
2022/04/10 04:38:57;;;;;;;;;;;;;;;3.33;53.85;92729.22;2061151;69;20080;-67
2022/04/10 04:41:23;;;;;;;;;;;;;;;3.47;53.11;92733.25;2061249;69;20496;-67
2022/04/10 04:43:49;;;;;;;;;;;;;;;3.50;52.77;92737.69;2059917;69;20050;-71
2022/04/10 04:46:15;;;;;;;;;;;;;;;3.66;50.88;92737.59;2054437;69;20550;-67
2022/04/10 04:48:40;;;;;;;;;;;;;;;3.60;51.48;92740.63;2054579;70;20042;-71
2022/04/10 04:51:06;;;;;;;;;;;;;;;3.68;51.28;92741.31;2055402;69;20053;-71
2022/04/10 04:53:32;;;;;;;;;;;;;;;3.64;51.78;92740.22;2057417;69;20102;-70
2022/04/10 04:55:57;;;;;;;;;;;;;;;3.50;52.37;92745.31;2058260;69;20054;-70
2022/04/10 04:58:26;;;;;;;;;;;;;;;3.24;53.08;92741.69;2061011;69;20552;-69
2022/04/10 05:00:53;;;;;;;;;;;;;;;3.22;52.76;92741.53;2057400;69;20050;-68
2022/04/10 05:03:20;;;;;;;;;;;;;;;3.41;53.07;92748.69;2057736;69;20050;-71
2022/04/10 05:05:46;;;;;;;;;;;;;;;3.44;52.49;92759.44;2057690;69;20046;-70
2022/04/10 05:08:19;;;;;;;;;;;;;;;3.43;51.73;92769.06;2057436;69;20060;-68
2022/04/10 05:10:46;;;;;;;;;;;;;;;3.53;52.47;92756.06;2057883;69;20050;-69
2022/04/10 05:13:12;;;;;;;;;;;;;;;3.57;52.69;92761.22;2057774;69;20116;-69
2022/04/10 05:15:38;;;;;;;;;;;;;;;3.69;50.97;92765.06;2057553;69;20078;-68
2022/04/10 05:18:04;;;;;;;;;;;;;;;3.66;51.84;92754.31;2057787;69;20149;-68
2022/04/10 05:20:32;;;;;;;;;;;;;;;3.49;52.57;92763.31;2057504;69;20429;-68
2022/04/10 05:23:06;;;;;;;;;;;;;;;3.72;50.95;92763.22;2056837;69;20066;-68
2022/04/10 05:25:36;;;;;;;;;;;;;;;3.91;51.16;92759.94;2056826;69;20109;-69
2022/04/10 05:28:02;;;;;;;;;;;;;;;3.87;52.14;92765.91;2057057;69;20066;-72
2022/04/10 05:30:27;;;;;;;;;;;;;;;3.88;52.25;92763.84;2057679;69;20067;-71
2022/04/10 05:32:53;;;;;;;;;;;;;;;3.89;53.20;92756.97;2058052;69;20482;-69
2022/04/10 05:35:19;;;;;;;;;;;;;;;3.78;52.92;92766.50;2057598;69;20069;-67
2022/04/10 05:37:45;;;;;;;;;;;;;;;3.81;54.01;92760.56;2054321;69;20161;-68
2022/04/10 05:40:11;;;;;;;;;;;;;;;4.00;52.65;92767.69;2057184;69;20082;-67
2022/04/10 05:42:38;;;;;;;;;;;;;;;4.05;52.67;92786.97;2057894;69;20065;-68
2022/04/10 05:45:04;;;;;;;;;;;;;;;4.17;51.97;92786.50;2057041;69;20467;-68
2022/04/10 05:47:32;;;;;;;;;;;;;;;3.88;53.20;92783.34;2057215;69;20046;-68
2022/04/10 05:49:58;;;;;;;;;;;;;;;4.32;51.59;92780.84;2055751;69;20049;-69
2022/04/10 05:52:25;;;;;;;;;;;;;;;4.36;50.40;92786.03;2056317;69;20073;-70
2022/04/10 05:54:51;;;;;;;;;;;;;;;3.61;53.58;92794.97;2056532;69;20057;-68
2022/04/10 05:57:16;;;;;;;;;;;;;;;3.86;52.97;92791.53;2057327;69;20182;-68
2022/04/10 05:59:42;;;;;;;;;;;;;;;4.20;52.37;92794.47;2058125;69;20100;-67
2022/04/10 06:02:08;;;;;;;;;;;;;;;4.54;51.77;92802.25;2056914;69;20470;-69
2022/04/10 06:04:33;;;;;;;;;;;;;;;4.52;52.77;92792.94;2057911;69;20069;-69
2022/04/10 06:06:59;;;;;;;;;;;;;;;4.66;51.92;92798.97;2058141;69;20054;-68
2022/04/10 06:09:31;;;;;;;;;;;;;;;4.79;50.97;92801.47;2057399;69;20156;-72
2022/04/10 06:11:57;;;;;;;;;;;;;;;4.75;50.56;92810.25;2057156;69;20114;-71
2022/04/10 06:14:25;;;;;;;;;;;;;;;4.84;49.63;92804.03;2057682;69;20098;-70
2022/04/10 06:16:50;;;;;;;;;;;;;;;5.05;49.02;92808.50;2058217;69;20052;-68
2022/04/10 06:19:19;;;;;;;;;;;;;;;5.02;51.18;92815.22;2058149;69;20050;-68
2022/04/10 06:21:46;;;;;;;;;;;;;;;5.07;50.69;92817.75;2058033;69;20512;-68
2022/04/10 06:24:12;;;;;;;;;;;;;;;5.20;50.35;92813.19;2056909;69;20164;-69
2022/04/10 06:26:43;;;;;;;;;;;;;;;5.22;50.13;92810.56;2058154;69;20042;-68
2022/04/10 06:29:09;;;;;;;;;;;;;;;5.26;48.64;92808.09;2055277;69;20490;-71
2022/04/10 06:31:48;;;;;;;;;;;;;;;5.27;49.86;92812.38;2056956;69;20493;-69
2022/04/10 06:34:16;;;;;;;;;;;;;;;5.26;49.60;92819.25;2060019;69;20053;-67
2022/04/10 06:36:42;;;;;;;;;;;;;;;5.42;48.62;92823.38;2057410;69;20544;-68
2022/04/10 06:39:09;;;;;;;;;;;;;;;5.50;47.17;92821.25;2056531;69;20559;-68
2022/04/10 06:41:35;;;;;;;;;;;;;;;5.71;47.44;92814.50;2057731;69;20080;-67
2022/04/10 06:44:06;;;;;;;;;;;;;;;5.77;47.03;92821.31;2057463;69;20046;-68
2022/04/10 06:46:43;;;;;;;;;;;;;;;5.94;47.04;92820.56;2057950;69;20145;-69
2022/04/10 06:49:17;;;;;;;;;;;;;;;6.13;46.44;92827.59;2057701;69;20069;-68
2022/04/10 06:51:44;;;;;;;;;;;;;;;6.12;47.03;92826.88;2058122;69;20054;-68
2022/04/10 06:54:11;;;;;;;;;;;;;;;6.28;45.25;92825.34;2057570;69;20050;-68
2022/04/10 06:56:36;;;;;;;;;;;;;;;6.54;44.48;92825.91;2058465;69;20108;-67
2022/04/10 06:59:02;;;;;;;;;;;;;;;6.26;44.53;92822.38;2054490;69;20109;-68
2022/04/10 07:01:28;;;;;;;;;;;;;;;6.28;45.28;92824.63;2057876;69;20089;-68
2022/04/10 07:03:54;;;;;;;;;;;;;;;6.49;45.66;92833.25;2057743;69;20058;-70
2022/04/10 07:06:26;;;;;;;;;;;;;;;6.47;44.97;92835.16;2057666;69;20082;-69
2022/04/10 07:08:51;;;;;;;;;;;;;;;6.65;43.75;92830.97;2057225;69;20145;-69
2022/04/10 07:11:24;;;;;;;;;;;;;;;6.45;44.06;92837.78;2057805;69;20046;-69
2022/04/10 07:13:51;;;;;;;;;;;;;;;5.82;45.27;92836.34;2057826;69;20569;-68
2022/04/10 07:16:16;;;;;;;;;;;;;;;6.22;44.44;92836.03;2057888;69;20046;-69
2022/04/10 07:18:43;;;;;;;;;;;;;;;6.45;44.16;92840.56;2057761;69;20054;-68
2022/04/10 07:21:14;;;;;;;;;;;;;;;5.56;44.30;92844.06;2055375;69;20077;-71
2022/04/10 07:23:44;;;;;;;;;;;;;;;5.01;44.92;92841.66;2058012;69;20064;-71
2022/04/10 07:26:16;;;;;;;;;;;;;;;5.31;44.87;92846.19;2057869;69;20152;-68
2022/04/10 07:28:44;;;;;;;;;;;;;;;5.84;44.40;92851.22;2058081;69;20085;-69
2022/04/10 07:31:10;;;;;;;;;;;;;;;5.43;45.24;92849.25;2058057;69;20089;-69
2022/04/10 07:33:37;;;;;;;;;;;;;;;5.07;45.56;92856.09;2058039;69;20057;-68
2022/04/10 07:36:13;;;;;;;;;;;;;;;5.49;44.88;92850.47;2057915;69;20046;-68
2022/04/10 07:38:39;;;;;;;;;;;;;;;5.58;44.54;92852.59;2057932;69;20045;-69
2022/04/10 07:41:09;;;;;;;;;;;;;;;5.73;44.33;92850.97;2057936;69;20073;-73
2022/04/10 07:43:39;;;;;;;;;;;;;;;5.34;45.45;92856.97;2058711;69;20057;-70
2022/04/10 07:49:00;;;;;;;;;;;;;;;5.90;43.33;92864.91;2058083;69;20145;-69
2022/04/10 07:51:29;;;;;;;;;;;;;;;6.74;42.66;92865.91;2057864;69;20053;-71
2022/04/10 07:54:07;;;;;;;;;;;;;;;6.29;42.95;92863.16;2057822;69;20490;-69
2022/04/10 07:56:32;;;;;;;;;;;;;;;6.91;43.30;92870.69;2057873;69;20057;-71
2022/04/10 07:59:00;;;;;;;;;;;;;;;6.62;42.75;92858.03;2058038;69;20459;-68
2022/04/10 08:01:36;;;;;;;;;;;;;;;6.42;44.04;92867.66;2058055;69;20054;-68
2022/04/10 08:04:06;;;;;;;;;;;;;;;6.11;44.01;92862.47;2058019;69;20458;-68
2022/04/10 08:06:43;;;;;;;;;;;;;;;6.62;43.05;92876.88;2057661;69;20129;-71
2022/04/10 08:09:09;;;;;;;;;;;;;;;6.50;42.61;92875.94;2057845;69;20141;-69
2022/04/10 08:11:35;;;;;;;;;;;;;;;6.50;43.05;92873.88;2058405;69;20081;-68
2022/04/10 08:14:01;;;;;;;;;;;;;;;6.19;43.46;92867.97;2058521;69;20042;-69
2022/04/10 08:16:26;;;;;;;;;;;;;;;6.58;43.29;92873.78;2057798;69;20061;-68
2022/04/10 08:18:52;;;;;;;;;;;;;;;6.68;42.15;92871.03;2058567;69;20058;-68
2022/04/10 08:21:18;;;;;;;;;;;;;;;6.60;41.40;92862.75;2058357;69;20116;-69
2022/04/10 08:23:43;;;;;;;;;;;;;;;6.77;42.17;92876.66;2058402;69;20157;-68
2022/04/10 08:26:09;;;;;;;;;;;;;;;6.78;42.19;92869.75;2058422;69;20054;-68
2022/04/10 08:28:35;;;;;;;;;;;;;;;7.00;41.62;92867.19;2058435;69;20646;-68
2022/04/10 08:31:00;;;;;;;;;;;;;;;7.73;41.60;92866.31;2058555;69;20054;-73
2022/04/10 08:33:26;;;;;;;;;;;;;;;7.60;43.24;92870.28;2058370;69;20090;-68
2022/04/10 08:35:51;;;;;;;;;;;;;;;8.07;40.13;92877.25;2058490;69;20052;-68
2022/04/10 08:38:17;;;;;;;;;;;;;;;8.65;40.56;92879.97;2058502;69;20394;-68
2022/04/10 08:40:44;;;;;;;;;;;;;;;8.29;39.56;92872.50;2058360;69;20053;-67
2022/04/10 08:43:10;;;;;;;;;;;;;;;8.81;38.58;92874.78;2057870;69;20046;-68
2022/04/10 08:45:37;;;;;;;;;;;;;;;9.37;37.92;92877.22;2058495;69;20146;-68
2022/04/10 08:48:03;;;;;;;;;;;;;;;8.96;38.44;92879.31;2058504;69;20054;-70
2022/04/10 08:50:29;;;;;;;;;;;;;;;9.35;36.73;92879.16;2058386;69;20120;-69
2022/04/10 08:52:58;;;;;;;;;;;;;;;9.90;38.85;92877.94;2058385;69;20111;-69
2022/04/10 08:55:24;;;;;;;;;;;;;;;10.00;36.83;92877.84;2058331;69;20042;-69
2022/04/10 08:57:49;;;;;;;;;;;;;;;10.93;35.61;92871.84;2058476;69;20107;-68
2022/04/10 09:00:17;;;;;;;;;;;;;;;10.10;33.85;92874.97;2058198;69;20405;-70
2022/04/10 09:02:47;;;;;;;;;;;;;;;9.71;35.07;92869.59;2058332;69;20062;-70
2022/04/10 09:05:16;;;;;;;;;;;;;;;10.40;34.74;92876.97;2058165;69;20054;-68
2022/04/10 09:08:02;;;;;;;;;;;;;;;10.62;35.71;92874.81;2058347;69;20046;-68
2022/04/10 09:10:27;;;;;;;;;;;;;;;10.88;34.48;92872.19;2058343;69;20060;-71
2022/04/10 09:12:53;;;;;;;;;;;;;;;10.79;35.81;92873.78;2058468;69;20046;-69
2022/04/10 09:15:20;;;;;;;;;;;;;;;11.10;36.51;92861.59;2054381;70;20055;-68
2022/04/10 09:17:54;;;;;;;;;;;;;;;9.46;33.52;92855.28;2055167;69;20166;-68
2022/04/10 09:20:20;;;;;;;;;;;;;;;9.24;33.35;92854.50;2054632;69;20145;-68
2022/04/10 09:22:45;;;;;;;;;;;;;;;10.72;34.99;92857.09;2058123;69;20613;-69
2022/04/10 09:25:14;;;;;;;;;;;;;;;10.01;32.72;92859.63;2058433;69;20050;-70
2022/04/10 09:27:40;;;;;;;;;;;;;;;10.65;31.47;92856.00;2058371;69;20057;-69
2022/04/10 09:30:07;;;;;;;;;;;;;;;11.02;31.52;92856.16;2058285;69;20070;-68
2022/04/10 09:32:52;;;;;;;;;;;;;;;11.60;30.47;92858.25;2058423;69;20046;-69
2022/04/10 09:35:19;;;;;;;;;;;;;;;11.88;31.92;92847.94;2058126;69;20046;-69
2022/04/10 09:37:49;;;;;;;;;;;;;;;11.79;31.04;92851.63;2058208;69;20050;-69
2022/04/10 09:40:31;;;;;;;;;;;;;;;11.30;30.58;92850.78;2058531;69;20223;-69
2022/04/10 09:42:57;;;;;;;;;;;;;;;11.57;30.20;92847.47;2058861;69;20061;-69
2022/04/10 09:45:33;;;;;;;;;;;;;;;11.71;29.22;92851.84;2058782;69;20054;-68
2022/04/10 09:48:16;;;;;;;;;;;;;;;12.06;27.49;92861.66;2058685;69;20054;-69
2022/04/10 09:50:41;;;;;;;;;;;;;;;9.91;28.76;92853.34;2058956;69;20097;-68
2022/04/10 09:53:08;;;;;;;;;;;;;;;11.23;28.40;92852.53;2058772;69;20157;-68
2022/04/10 09:55:33;;;;;;;;;;;;;;;11.49;27.79;92850.53;2058646;69;20057;-69
2022/04/10 09:58:00;;;;;;;;;;;;;;;11.95;28.94;92846.94;2058732;69;20046;-70
2022/04/10 10:00:25;;;;;;;;;;;;;;;11.06;29.81;92855.69;2058623;69;20077;-67
2022/04/10 10:02:51;;;;;;;;;;;;;;;10.45;29.20;92844.19;2058499;69;20517;-68
2022/04/10 10:05:17;;;;;;;;;;;;;;;9.78;29.69;92849.00;2058796;69;20052;-68
2022/04/10 10:07:43;;;;;;;;;;;;;;;10.34;29.30;92851.25;2058500;69;20437;-69
2022/04/10 10:10:09;;;;;;;;;;;;;;;10.55;28.47;92844.81;2058688;69;20497;-69
2022/04/10 10:12:34;;;;;;;;;;;;;;;10.97;28.99;92853.72;2058836;69;20062;-69
2022/04/10 10:15:00;;;;;;;;;;;;;;;10.84;28.53;92852.22;2058574;69;20057;-69
2022/04/10 10:17:26;;;;;;;;;;;;;;;11.45;29.35;92853.88;2058793;69;20078;-68
2022/04/10 10:19:52;;;;;;;;;;;;;;;11.62;29.15;92852.72;2058745;69;20046;-68
2022/04/10 10:22:18;;;;;;;;;;;;;;;11.71;29.29;92857.50;2058629;69;20058;-68
2022/04/10 10:24:46;;;;;;;;;;;;;;;11.80;28.66;92866.44;2058515;69;20050;-70
2022/04/10 10:27:21;;;;;;;;;;;;;;;10.25;29.71;92862.59;2058703;69;20058;-68
2022/04/10 10:29:53;;;;;;;;;;;;;;;9.84;31.32;92863.44;2058910;69;20058;-68
2022/04/10 10:32:28;;;;;;;;;;;;;;;9.93;29.99;92873.91;2058744;69;20437;-69
2022/04/10 10:34:54;;;;;;;;;;;;;;;10.41;31.16;92880.53;2058529;69;20104;-69
2022/04/10 10:37:29;;;;;;;;;;;;;;;10.66;31.41;92874.34;2058543;69;20042;-70
2022/04/10 10:39:55;;;;;;;;;;;;;;;11.57;30.89;92870.03;2058348;69;20145;-70
2022/04/10 10:42:22;;;;;;;;;;;;;;;11.43;30.93;92873.47;2058515;69;20149;-70
2022/04/10 10:44:48;;;;;;;;;;;;;;;11.73;29.06;92876.66;2058559;69;20079;-69
2022/04/10 10:47:26;;;;;;;;;;;;;;;12.26;29.31;92870.53;2058449;69;20517;-69
2022/04/10 10:49:55;;;;;;;;;;;;;;;12.18;28.57;92873.63;2058547;69;20062;-69
2022/04/10 10:52:21;;;;;;;;;;;;;;;10.91;29.95;92879.44;2058531;69;20053;-72
2022/04/10 10:54:58;;;;;;;;;;;;;;;11.88;29.37;92870.50;2058594;69;20049;-67
2022/04/10 10:57:25;;;;;;;;;;;;;;;14.31;27.09;92863.06;2058654;69;20042;-67
2022/04/10 10:59:51;;;;;;;;;;;;;;;16.49;25.20;92859.56;2058584;69;20129;-69
2022/04/10 11:02:19;;;;;;;;;;;;;;;15.82;25.43;92861.63;2058696;69;20121;-71
2022/04/10 11:04:46;;;;;;;;;;;;;;;15.60;25.35;92870.59;2058576;69;20086;-69
2022/04/10 11:07:11;;;;;;;;;;;;;;;14.68;25.21;92866.34;2058657;69;20156;-72
2022/04/10 11:09:46;;;;;;;;;;;;;;;13.22;26.44;92859.63;2058459;69;20569;-69
2022/04/10 11:12:13;;;;;;;;;;;;;;;13.30;27.36;92882.69;2057432;69;20053;-68
2022/04/10 11:14:39;;;;;;;;;;;;;;;12.48;28.14;92876.72;2057032;69;20062;-67
2022/04/10 11:17:09;;;;;;;;;;;;;;;11.68;29.20;92892.59;2058428;69;20050;-67
2022/04/10 11:19:36;;;;;;;;;;;;;;;11.63;29.09;92879.56;2058499;69;20050;-67
2022/04/10 11:22:02;;;;;;;;;;;;;;;11.45;29.51;92876.41;2058466;69;20140;-67
2022/04/10 11:24:28;;;;;;;;;;;;;;;11.75;29.00;92884.47;2058439;69;20045;-71
2022/04/10 11:26:54;;;;;;;;;;;;;;;12.30;29.33;92879.22;2058482;69;20090;-67
2022/04/10 11:29:25;;;;;;;;;;;;;;;10.85;30.58;92888.22;2057922;69;20152;-68
2022/04/10 11:31:52;;;;;;;;;;;;;;;10.23;31.09;92891.31;2055130;69;20122;-67
2022/04/10 11:34:28;;;;;;;;;;;;;;;11.64;29.51;92889.53;2054936;69;20065;-69
2022/04/10 11:36:55;;;;;;;;;;;;;;;10.83;29.68;92904.28;2055222;69;20054;-69
2022/04/10 11:39:32;;;;;;;;;;;;;;;10.55;30.02;92891.94;2056540;69;20062;-68
2022/04/10 11:42:02;;;;;;;;;;;;;;;9.92;30.51;92894.94;2058419;69;20054;-69
2022/04/10 11:44:29;;;;;;;;;;;;;;;9.66;30.36;92879.84;2058561;69;20096;-69
2022/04/10 11:46:54;;;;;;;;;;;;;;;8.59;31.95;92890.78;2058061;69;20121;-68
2022/04/10 11:49:20;;;;;;;;;;;;;;;10.09;30.93;92890.38;2058465;69;20062;-68
2022/04/10 11:51:49;;;;;;;;;;;;;;;9.87;31.30;92895.28;2057716;69;20085;-68
2022/04/10 11:54:22;;;;;;;;;;;;;;;10.60;30.93;92902.13;2058169;69;20058;-68
2022/04/10 11:56:47;;;;;;;;;;;;;;;10.37;29.91;92911.22;2058097;69;20072;-68
2022/04/10 11:59:13;;;;;;;;;;;;;;;9.73;30.04;92909.13;2058591;69;20474;-68
2022/04/10 12:01:39;;;;;;;;;;;;;;;9.74;29.81;92902.16;2058403;69;20050;-67
2022/04/10 12:04:06;;;;;;;;;;;;;;;9.89;29.66;92915.06;2057397;69;20057;-68
2022/04/10 12:06:31;;;;;;;;;;;;;;;10.29;29.79;92917.03;2058382;69;20088;-68
2022/04/10 12:08:57;;;;;;;;;;;;;;;10.51;29.99;92917.75;2058316;69;20062;-67
2022/04/10 12:11:23;;;;;;;;;;;;;;;10.51;29.70;92912.13;2058427;69;20049;-70
2022/04/10 12:13:48;;;;;;;;;;;;;;;10.24;29.67;92908.91;2057992;69;20513;-69
2022/04/10 12:16:17;;;;;;;;;;;;;;;10.10;29.51;92908.72;2058057;69;20050;-68
2022/04/10 12:18:49;;;;;;;;;;;;;;;10.83;28.86;92904.28;2056884;69;20126;-68
2022/04/10 12:21:15;;;;;;;;;;;;;;;12.13;26.62;92906.50;2057662;69;20156;-68
2022/04/10 12:23:41;;;;;;;;;;;;;;;16.57;23.38;92904.59;2058199;69;20050;-69
2022/04/10 12:26:07;;;;;;;;;;;;;;;13.76;23.71;92897.81;2057831;69;20142;-68
2022/04/10 12:28:33;;;;;;;;;;;;;;;13.59;24.54;92887.72;2057406;69;20090;-69
2022/04/10 12:31:01;;;;;;;;;;;;;;;16.43;22.57;92899.06;2057679;69;20137;-68
2022/04/10 12:33:26;;;;;;;;;;;;;;;14.94;23.95;92888.81;2057894;69;20116;-67
2022/04/10 12:35:52;;;;;;;;;;;;;;;14.10;24.43;92886.78;2057084;69;20155;-67
2022/04/10 12:38:17;;;;;;;;;;;;;;;13.82;24.59;92889.63;2056390;69;20053;-66
2022/04/10 12:40:45;;;;;;;;;;;;;;;12.88;25.60;92892.38;2057371;69;20078;-70
2022/04/10 12:43:12;;;;;;;;;;;;;;;12.21;26.37;92890.06;2058206;69;20057;-70
2022/04/10 12:45:39;;;;;;;;;;;;;;;11.78;26.25;92889.63;2057247;69;20101;-69
2022/04/10 12:48:21;;;;;;;;;;;;;;;13.86;24.58;92869.31;2057079;69;20175;-68
2022/04/10 12:50:46;;;;;;;;;;;;;;;14.94;23.21;92880.31;2057170;69;20857;-68
2022/04/10 12:53:12;;;;;;;;;;;;;;;15.99;22.79;92872.34;2056033;69;20054;-68
2022/04/10 12:55:38;;;;;;;;;;;;;;;15.83;22.20;92869.50;2057706;69;20057;-68
2022/04/10 12:58:05;;;;;;;;;;;;;;;20.74;19.21;92874.59;2058205;69;20050;-70